Time;durP1;ratioP1;P1;durP2;ratioP2;P2;SDS_P1;SDS_P2;PMS_P1;PMS_P2;Temp;Humidity;BMP_temperature;BMP_pressure;BME280_temperature;BME280_humidity;BME280_pressure;Samples;Min_cycle;Max_cycle;Signal;HPM_P1;HPM_P2
2023/06/27 00:01:50;;;;;;;5.35;1.50;;;16.00;99.90;;;;;;12344618;28;20051;-83
2023/06/27 00:07:52;;;;;;;7.03;1.20;;;15.90;99.90;;;;;;12337468;28;20051;-83
2023/06/27 00:13:58;;;;;;;4.35;1.35;;;16.10;99.90;;;;;;12328864;28;20043;-83
2023/06/27 00:20:00;;;;;;;7.10;1.80;;;16.40;99.90;;;;;;12351838;28;20059;-84
2023/06/27 00:26:03;;;;;;;11.95;1.42;;;16.50;99.90;;;;;;12336967;28;20546;-83
2023/06/27 00:32:06;;;;;;;4.00;1.20;;;16.40;99.90;;;;;;12353514;28;20054;-83
2023/06/27 00:38:08;;;;;;;2.83;1.10;;;16.30;99.90;;;;;;12356799;28;20046;-83
2023/06/27 00:44:11;;;;;;;7.25;1.58;;;16.30;99.90;;;;;;12341569;28;20086;-83
2023/06/27 00:50:14;;;;;;;6.10;1.40;;;16.10;99.90;;;;;;12359132;28;20051;-83
2023/06/27 00:56:16;;;;;;;4.93;1.42;;;16.10;99.90;;;;;;12339725;28;20177;-83
2023/06/27 01:02:23;;;;;;;3.70;1.23;;;16.00;99.90;;;;;;12352467;28;20066;-83
2023/06/27 01:08:33;;;;;;;5.18;1.52;;;15.90;99.90;;;;;;12347978;28;20065;-83
2023/06/27 01:14:38;;;;;;;4.93;1.45;;;15.70;99.90;;;;;;12323685;28;20049;-83
2023/06/27 01:20:43;;;;;;;3.38;1.17;;;15.70;99.90;;;;;;12348256;28;20038;-83
2023/06/27 01:26:48;;;;;;;8.55;1.95;;;15.70;99.90;;;;;;12360702;28;20046;-83
2023/06/27 01:33:01;;;;;;;5.75;1.65;;;15.70;99.90;;;;;;12347527;28;20047;-83
2023/06/27 01:39:11;;;;;;;5.82;1.50;;;15.60;99.90;;;;;;12336052;28;20696;-83
2023/06/27 01:45:14;;;;;;;5.38;1.58;;;15.50;99.90;;;;;;12335888;28;20043;-83
2023/06/27 01:51:17;;;;;;;6.80;1.40;;;15.50;99.90;;;;;;12329556;28;20051;-83
2023/06/27 01:57:19;;;;;;;4.28;1.25;;;15.40;99.90;;;;;;12341770;28;20047;-83
2023/06/27 02:03:21;;;;;;;5.93;1.60;;;15.40;99.90;;;;;;12329320;28;20045;-83
2023/06/27 02:09:24;;;;;;;3.92;1.55;;;15.30;99.90;;;;;;12349398;28;20046;-83
2023/06/27 02:15:26;;;;;;;6.85;1.60;;;15.50;99.90;;;;;;12352604;28;20108;-83
2023/06/27 02:21:29;;;;;;;4.65;1.38;;;15.40;99.90;;;;;;12346212;28;20039;-82
2023/06/27 02:27:32;;;;;;;10.68;1.98;;;15.40;99.90;;;;;;12336971;28;20048;-83
2023/06/27 02:33:34;;;;;;;6.18;1.77;;;15.30;99.90;;;;;;12356501;28;20054;-84
2023/06/27 02:39:36;;;;;;;5.57;1.73;;;15.40;99.90;;;;;;12388494;28;20097;-84
2023/06/27 02:45:40;;;;;;;5.90;1.50;;;15.40;99.90;;;;;;12408210;28;20043;-84
2023/06/27 02:51:42;;;;;;;6.63;1.95;;;15.30;99.90;;;;;;12363637;28;20039;-83
2023/06/27 02:57:44;;;;;;;5.88;1.63;;;15.40;99.90;;;;;;12315218;28;20044;-83
2023/06/27 03:03:46;;;;;;;6.05;1.73;;;15.30;99.90;;;;;;12331747;28;20058;-83
2023/06/27 03:09:49;;;;;;;5.20;1.38;;;15.40;99.90;;;;;;12327025;28;20091;-83
2023/06/27 03:15:50;;;;;;;5.95;1.45;;;15.50;99.90;;;;;;12331794;28;20051;-83
2023/06/27 03:21:52;;;;;;;5.55;1.40;;;15.50;99.90;;;;;;12331367;28;20134;-83
2023/06/27 03:27:54;;;;;;;9.35;1.85;;;15.60;99.90;;;;;;12343584;28;20055;-83
2023/06/27 03:33:57;;;;;;;4.75;1.40;;;15.50;99.90;;;;;;12338149;28;20092;-83
2023/06/27 03:39:59;;;;;;;3.75;1.30;;;15.50;99.90;;;;;;12329194;28;20098;-83
2023/06/27 03:46:00;;;;;;;6.57;1.65;;;15.40;99.90;;;;;;12346683;28;20051;-84
2023/06/27 03:52:03;;;;;;;4.60;1.83;;;15.40;99.90;;;;;;12326130;28;20039;-84
2023/06/27 03:58:05;;;;;;;5.25;1.52;;;15.30;99.90;;;;;;12363094;28;20050;-83
2023/06/27 04:04:08;;;;;;;4.70;1.60;;;15.20;99.90;;;;;;12354902;28;20057;-85
2023/06/27 04:10:13;;;;;;;4.53;1.60;;;15.40;99.90;;;;;;12346121;28;20087;-83
2023/06/27 04:16:15;;;;;;;5.30;1.50;;;15.40;99.90;;;;;;12355790;28;20055;-84
2023/06/27 04:22:17;;;;;;;4.95;1.70;;;15.70;99.90;;;;;;12341794;28;20054;-83
2023/06/27 04:28:19;;;;;;;6.93;1.95;;;16.00;99.90;;;;;;12340113;28;20434;-84
2023/06/27 04:34:21;;;;;;;4.53;1.83;;;16.20;99.90;;;;;;12341511;28;20043;-83
2023/06/27 04:40:23;;;;;;;5.05;1.85;;;16.90;99.90;;;;;;12349623;28;20235;-84
2023/06/27 04:46:29;;;;;;;6.05;2.05;;;17.70;99.90;;;;;;12343524;28;20067;-84
2023/06/27 04:52:32;;;;;;;7.47;2.10;;;17.50;99.90;;;;;;12340233;28;20042;-83
2023/06/27 04:58:35;;;;;;;4.03;1.90;;;17.30;99.90;;;;;;12349666;28;21284;-83
2023/06/27 05:04:37;;;;;;;5.30;2.15;;;16.80;99.90;;;;;;12331377;28;20058;-83
2023/06/27 05:10:39;;;;;;;6.38;2.22;;;16.70;99.90;;;;;;12342428;28;20074;-83
2023/06/27 05:16:41;;;;;;;4.10;2.15;;;16.50;99.90;;;;;;12324205;28;20051;-83
2023/06/27 05:22:43;;;;;;;5.68;2.40;;;16.40;99.90;;;;;;12309942;28;20547;-84
2023/06/27 05:28:45;;;;;;;7.47;2.72;;;16.20;99.90;;;;;;12332776;28;20500;-83
2023/06/27 05:34:47;;;;;;;7.40;2.65;;;16.20;99.90;;;;;;12323355;28;20038;-84
2023/06/27 05:40:50;;;;;;;7.03;2.40;;;16.10;99.90;;;;;;12345352;28;20053;-84
2023/06/27 05:46:52;;;;;;;5.43;2.63;;;15.90;99.90;;;;;;12321365;28;20082;-83
2023/06/27 05:52:54;;;;;;;8.25;2.80;;;16.10;99.90;;;;;;12321246;28;20054;-83
2023/06/27 05:58:56;;;;;;;6.97;3.08;;;16.30;99.90;;;;;;12306422;28;20567;-83
2023/06/27 06:04:58;;;;;;;6.28;3.05;;;16.40;99.90;;;;;;12323015;28;20149;-83
2023/06/27 06:11:00;;;;;;;11.00;3.40;;;16.40;99.90;;;;;;12324525;28;20788;-83
2023/06/27 06:17:02;;;;;;;7.55;2.65;;;16.40;99.90;;;;;;12350489;28;20181;-83
2023/06/27 06:23:03;;;;;;;9.48;3.33;;;16.60;99.90;;;;;;12330479;28;20047;-84
2023/06/27 06:29:06;;;;;;;7.88;3.17;;;16.60;99.90;;;;;;12322981;28;20043;-83
2023/06/27 06:35:08;;;;;;;8.38;3.70;;;17.10;99.90;;;;;;12299429;28;20098;-84
2023/06/27 06:41:10;;;;;;;9.02;2.90;;;17.50;99.90;;;;;;12303728;28;20074;-83
2023/06/27 06:47:12;;;;;;;6.88;2.95;;;17.60;99.90;;;;;;12309564;28;20046;-83
2023/06/27 06:53:14;;;;;;;9.35;3.08;;;17.40;99.90;;;;;;12323891;28;20201;-83
2023/06/27 06:59:16;;;;;;;8.60;3.13;;;17.60;99.90;;;;;;12313003;28;20492;-83
2023/06/27 07:05:18;;;;;;;7.30;2.42;;;17.60;99.90;;;;;;12325927;28;20419;-83
2023/06/27 07:11:23;;;;;;;7.82;2.33;;;17.80;99.90;;;;;;12340300;28;20051;-82
2023/06/27 07:17:26;;;;;;;5.07;2.10;;;17.80;99.90;;;;;;12307215;28;20047;-82
2023/06/27 07:23:28;;;;;;;6.85;2.47;;;17.70;99.90;;;;;;12320559;28;20727;-84
2023/06/27 07:29:30;;;;;;;6.45;2.20;;;17.50;99.90;;;;;;12311010;28;20419;-83
2023/06/27 07:35:32;;;;;;;4.65;1.58;;;17.70;99.90;;;;;;12321105;28;20408;-83
2023/06/27 07:41:34;;;;;;;7.15;1.70;;;17.80;99.90;;;;;;12332877;28;20300;-83
2023/06/27 07:47:36;;;;;;;5.80;1.35;;;18.00;99.90;;;;;;12304967;28;20051;-82
2023/06/27 07:53:38;;;;;;;10.63;1.70;;;18.00;99.90;;;;;;12301001;28;20090;-86
2023/06/27 07:59:40;;;;;;;6.38;1.30;;;18.10;99.90;;;;;;12333097;28;20541;-83
2023/06/27 08:05:42;;;;;;;7.32;1.48;;;18.30;99.90;;;;;;12330795;28;20129;-82
2023/06/27 08:11:45;;;;;;;6.90;1.30;;;18.30;99.90;;;;;;12315766;28;20178;-83
2023/06/27 08:17:48;;;;;;;4.50;1.15;;;18.50;99.90;;;;;;12311817;28;20676;-83
2023/06/27 08:23:49;;;;;;;4.30;1.20;;;18.80;99.90;;;;;;12325507;28;20055;-82
2023/06/27 08:29:51;;;;;;;6.72;1.40;;;19.10;99.90;;;;;;12316617;28;20499;-84
2023/06/27 08:35:53;;;;;;;7.22;1.33;;;18.90;99.90;;;;;;12306766;28;20057;-84
2023/06/27 08:41:57;;;;;;;6.30;1.55;;;19.00;99.90;;;;;;12325173;28;21022;-83
2023/06/27 08:47:59;;;;;;;6.15;1.55;;;19.10;99.90;;;;;;12323244;28;20050;-85
2023/06/27 08:54:13;;;;;;;2.80;0.98;;;19.20;99.90;;;;;;12328286;28;20046;-85
2023/06/27 09:00:21;;;;;;;2.97;1.20;;;19.40;99.90;;;;;;12333293;28;20466;-85
2023/06/27 09:06:23;;;;;;;4.15;1.13;;;19.30;99.90;;;;;;12323078;28;20112;-84
2023/06/27 09:12:30;;;;;;;5.82;1.17;;;19.20;99.90;;;;;;12318844;28;20069;-82
2023/06/27 09:18:37;;;;;;;2.78;1.10;;;19.30;99.90;;;;;;12323372;28;20043;-84
2023/06/27 09:24:40;;;;;;;5.43;0.90;;;19.10;99.90;;;;;;12333408;28;20051;-84
2023/06/27 09:30:57;;;;;;;5.90;1.20;;;19.10;99.90;;;;;;12327007;28;20587;-83
2023/06/27 09:37:02;;;;;;;4.85;1.10;;;19.10;99.90;;;;;;12337774;28;20105;-84
2023/06/27 09:43:08;;;;;;;2.63;0.88;;;19.10;99.90;;;;;;12305326;28;20134;-83
2023/06/27 09:49:10;;;;;;;7.70;1.13;;;19.40;99.90;;;;;;12307329;28;20062;-84
2023/06/27 09:55:20;;;;;;;4.60;1.38;;;19.80;99.90;;;;;;12335292;28;20077;-84
2023/06/27 10:01:24;;;;;;;5.38;1.52;;;20.00;99.90;;;;;;12354783;28;20045;-85
2023/06/27 10:07:26;;;;;;;6.45;1.15;;;20.40;99.90;;;;;;12430695;28;20045;-84
2023/06/27 10:13:28;;;;;;;5.90;0.90;;;20.80;99.90;;;;;;12423259;28;20046;-83
2023/06/27 10:19:34;;;;;;;5.47;1.45;;;20.20;99.90;;;;;;12409569;28;20084;-85
2023/06/27 10:25:37;;;;;;;6.50;1.20;;;19.90;99.90;;;;;;12397055;28;20061;-84
2023/06/27 10:31:45;;;;;;;5.28;1.20;;;19.60;99.90;;;;;;12406825;28;20049;-83
2023/06/27 10:38:08;;;;;;;7.35;1.38;;;20.20;99.90;;;;;;12417836;28;20054;-86
2023/06/27 10:44:17;;;;;;;4.60;1.13;;;20.60;99.90;;;;;;12418285;28;20056;-85
2023/06/27 10:50:22;;;;;;;3.65;1.02;;;20.30;99.90;;;;;;12411621;28;20482;-84
2023/06/27 10:56:29;;;;;;;7.13;1.60;;;19.80;99.90;;;;;;12431728;28;20042;-84
2023/06/27 11:02:34;;;;;;;6.57;1.65;;;19.80;99.90;;;;;;12418528;28;20053;-86
2023/06/27 11:08:38;;;;;;;5.75;1.67;;;19.80;99.90;;;;;;12407261;28;20050;-85
2023/06/27 11:14:45;;;;;;;5.07;1.10;;;20.30;99.90;;;;;;12432530;28;20068;-85
2023/06/27 11:20:49;;;;;;;6.82;1.42;;;19.90;99.90;;;;;;12406846;28;20540;-86
2023/06/27 11:26:51;;;;;;;;;;;19.90;99.90;;;;;;12417237;28;20053;-85
2023/06/27 11:32:56;;;;;;;4.78;1.40;;;20.30;99.90;;;;;;12391581;28;20242;-85
2023/06/27 11:38:58;;;;;;;6.00;1.10;;;20.00;99.90;;;;;;12407556;28;20887;-84
2023/06/27 11:45:00;;;;;;;14.48;1.45;;;20.10;99.90;;;;;;12396899;28;20679;-83
2023/06/27 11:51:06;;;;;;;6.22;1.58;;;19.80;99.90;;;;;;12408761;28;20058;-83
2023/06/27 11:57:08;;;;;;;6.10;1.40;;;19.60;99.90;;;;;;12411620;28;20052;-84
2023/06/27 12:03:10;;;;;;;4.88;1.27;;;19.50;99.90;;;;;;12429920;28;20053;-84
2023/06/27 12:09:24;;;;;;;5.00;1.40;;;19.50;99.90;;;;;;12411964;28;20423;-83
2023/06/27 12:15:26;;;;;;;6.25;1.20;;;19.90;99.90;;;;;;12422737;28;20047;-84
2023/06/27 12:21:28;;;;;;;5.05;1.20;;;20.20;99.90;;;;;;12416917;28;20410;-84
2023/06/27 12:27:34;;;;;;;6.22;1.52;;;20.40;99.90;;;;;;12412797;28;20069;-85
2023/06/27 12:33:36;;;;;;;5.93;1.45;;;20.40;99.90;;;;;;12418808;28;20041;-84
2023/06/27 12:39:38;;;;;;;5.70;1.23;;;20.10;99.90;;;;;;12414731;28;20058;-84
2023/06/27 12:45:40;;;;;;;1.98;0.90;;;19.80;99.90;;;;;;12433077;28;20412;-84
2023/06/27 12:51:45;;;;;;;4.20;1.00;;;19.70;99.90;;;;;;12415873;28;20049;-84
2023/06/27 12:57:48;;;;;;;4.53;1.20;;;19.70;99.90;;;;;;12421026;28;20458;-83
2023/06/27 13:03:50;;;;;;;17.67;1.55;;;19.90;99.90;;;;;;12412927;28;20078;-83
2023/06/27 13:09:53;;;;;;;3.67;1.23;;;20.00;99.90;;;;;;12406819;28;20521;-83
2023/06/27 13:15:55;;;;;;;5.13;1.50;;;20.10;99.90;;;;;;12413877;28;20062;-83
2023/06/27 13:22:16;;;;;;;3.60;1.15;;;20.20;99.90;;;;;;12436075;28;20045;-84
2023/06/27 13:28:19;;;;;;;5.25;0.90;;;20.30;99.90;;;;;;12424713;28;20264;-85
2023/06/27 13:34:22;;;;;;;6.40;1.10;;;20.30;99.90;;;;;;12417489;28;20096;-86
2023/06/27 13:40:24;;;;;;;4.90;0.95;;;20.20;99.90;;;;;;12417994;28;20042;-85
2023/06/27 13:46:26;;;;;;;4.50;1.30;;;20.20;99.90;;;;;;12425859;28;20053;-86
2023/06/27 13:52:28;;;;;;;5.93;0.90;;;20.50;99.90;;;;;;12410485;28;20050;-85
2023/06/27 13:58:30;;;;;;;5.43;1.00;;;20.70;99.90;;;;;;12431731;28;20038;-86
2023/06/27 14:04:32;;;;;;;7.20;1.25;;;20.60;99.90;;;;;;12430451;28;20038;-88
2023/06/27 14:10:36;;;;;;;8.82;1.20;;;20.50;99.90;;;;;;12431284;28;20050;-87
2023/06/27 14:16:39;;;;;;;4.43;1.50;;;20.40;99.90;;;;;;12424942;28;20073;-85
2023/06/27 14:22:42;;;;;;;3.92;1.10;;;20.50;99.90;;;;;;12430273;28;20136;-85
2023/06/27 14:28:44;;;;;;;8.85;0.90;;;20.40;99.90;;;;;;12441465;28;20052;-85
2023/06/27 14:34:46;;;;;;;3.20;0.70;;;20.50;99.90;;;;;;12426491;28;20474;-85
2023/06/27 14:40:48;;;;;;;7.63;0.93;;;20.70;99.90;;;;;;12419733;28;20049;-84
2023/06/27 14:46:50;;;;;;;3.85;0.77;;;20.50;99.90;;;;;;12414652;28;20049;-83
2023/06/27 14:52:52;;;;;;;3.40;0.95;;;20.50;99.90;;;;;;12435543;28;20061;-84
2023/06/27 14:58:54;;;;;;;3.97;0.82;;;20.40;99.90;;;;;;12430984;28;20058;-83
2023/06/27 15:04:56;;;;;;;2.33;0.70;;;20.40;99.90;;;;;;12442077;28;20339;-84
2023/06/27 15:10:58;;;;;;;3.05;0.60;;;20.60;99.90;;;;;;12449457;28;20061;-85
2023/06/27 15:17:00;;;;;;;2.63;0.90;;;20.40;99.90;;;;;;12433027;28;20179;-85
2023/06/27 15:23:02;;;;;;;2.20;0.82;;;20.40;99.90;;;;;;12405239;28;20046;-83
2023/06/27 15:29:07;;;;;;;4.22;0.88;;;20.30;99.90;;;;;;12409972;28;20057;-87
2023/06/27 15:35:09;;;;;;;5.40;0.98;;;20.20;99.90;;;;;;12415265;28;20049;-85
2023/06/27 15:41:10;;;;;;;3.45;1.00;;;20.20;99.90;;;;;;12411444;28;20042;-85
2023/06/27 15:47:12;;;;;;;2.72;0.80;;;20.10;99.90;;;;;;12410778;28;20048;-85
2023/06/27 15:53:14;;;;;;;3.17;0.80;;;19.90;99.90;;;;;;12436048;28;20058;-84
2023/06/27 15:59:16;;;;;;;2.65;0.80;;;19.80;99.90;;;;;;12430880;28;20054;-85
2023/06/27 16:05:18;;;;;;;4.50;1.10;;;20.00;99.90;;;;;;12409948;28;20503;-84
2023/06/27 16:11:20;;;;;;;2.45;0.77;;;20.00;99.90;;;;;;12440388;28;20407;-84
2023/06/27 16:17:22;;;;;;;2.22;0.90;;;20.00;99.90;;;;;;12449327;28;20284;-86
2023/06/27 16:23:24;;;;;;;5.63;1.00;;;19.80;99.90;;;;;;12484862;28;20053;-84
2023/06/27 16:29:29;;;;;;;2.35;0.75;;;19.70;99.90;;;;;;12470018;28;20058;-85
2023/06/27 16:35:31;;;;;;;4.35;0.80;;;19.70;99.90;;;;;;12432375;28;20042;-84
2023/06/27 16:41:35;;;;;;;3.80;0.85;;;19.60;99.90;;;;;;12419758;28;20057;-84
2023/06/27 16:47:40;;;;;;;4.57;1.02;;;19.60;99.90;;;;;;12430817;28;20053;-84
2023/06/27 16:53:42;;;;;;;4.60;1.10;;;19.60;99.90;;;;;;12431713;28;20045;-84
2023/06/27 16:59:44;;;;;;;5.00;0.90;;;19.50;99.90;;;;;;12439091;28;20061;-84
2023/06/27 17:05:46;;;;;;;3.38;1.00;;;19.60;99.90;;;;;;12450799;28;20131;-83
2023/06/27 17:11:48;;;;;;;4.10;0.90;;;19.50;99.90;;;;;;12453780;28;20048;-84
2023/06/27 17:17:50;;;;;;;4.95;1.23;;;19.40;99.90;;;;;;12444519;28;20046;-84
2023/06/27 17:23:52;;;;;;;2.97;0.80;;;19.30;99.90;;;;;;12424750;28;20054;-84
2023/06/27 17:29:54;;;;;;;4.25;0.82;;;19.30;99.90;;;;;;12419918;28;20050;-83
2023/06/27 17:35:56;;;;;;;5.28;1.00;;;19.30;99.90;;;;;;12435617;28;20049;-83
2023/06/27 17:41:58;;;;;;;3.05;0.70;;;19.30;99.90;;;;;;12415190;28;20863;-83
2023/06/27 17:48:03;;;;;;;5.72;0.95;;;19.20;99.90;;;;;;12422832;28;20049;-84
2023/06/27 17:54:05;;;;;;;3.15;0.90;;;19.10;99.90;;;;;;12407976;28;20042;-84
2023/06/27 18:00:08;;;;;;;5.88;1.02;;;19.20;99.90;;;;;;12432264;28;20506;-84
2023/06/27 18:06:10;;;;;;;5.93;1.57;;;19.10;99.90;;;;;;12433443;28;20065;-84
2023/06/27 18:12:15;;;;;;;3.97;1.00;;;19.20;99.90;;;;;;12425944;28;20051;-84
2023/06/27 18:18:17;;;;;;;4.03;1.00;;;19.10;99.90;;;;;;12416432;28;20054;-84
2023/06/27 18:24:21;;;;;;;4.82;1.00;;;19.00;99.90;;;;;;12408459;28;20038;-83
2023/06/27 18:30:23;;;;;;;3.55;0.85;;;18.90;99.90;;;;;;12430714;28;20153;-82
2023/06/27 18:36:25;;;;;;;4.72;1.00;;;18.80;99.90;;;;;;12420568;28;20109;-83
2023/06/27 18:42:29;;;;;;;4.40;1.23;;;18.70;99.90;;;;;;12430022;28;20050;-84
2023/06/27 18:48:34;;;;;;;3.47;1.08;;;18.80;99.90;;;;;;12409748;28;20042;-85
2023/06/27 18:54:36;;;;;;;6.45;1.48;;;18.70;99.90;;;;;;12409737;28;20039;-83
2023/06/27 19:00:38;;;;;;;1.83;0.65;;;18.60;99.90;;;;;;12422889;28;20060;-84
2023/06/27 19:06:41;;;;;;;5.32;1.10;;;18.70;99.90;;;;;;12412383;28;20050;-84
2023/06/27 19:12:43;;;;;;;4.40;0.77;;;18.70;99.90;;;;;;12418005;28;20073;-83
2023/06/27 19:18:45;;;;;;;3.13;0.90;;;18.50;99.90;;;;;;12423856;28;20108;-84
2023/06/27 19:24:48;;;;;;;5.85;0.77;;;18.70;99.90;;;;;;12406430;28;20173;-84
2023/06/27 19:30:50;;;;;;;3.50;1.08;;;18.60;99.90;;;;;;12424931;28;20046;-84
2023/06/27 19:36:52;;;;;;;4.25;0.98;;;18.40;99.90;;;;;;12419133;28;20394;-84
2023/06/27 19:42:54;;;;;;;9.48;1.00;;;18.30;99.90;;;;;;12403718;28;20056;-84
2023/06/27 19:48:57;;;;;;;3.92;0.88;;;18.20;99.90;;;;;;12400295;28;20060;-84
2023/06/27 19:54:59;;;;;;;3.53;0.90;;;17.90;99.90;;;;;;12424820;28;20041;-84
2023/06/27 20:01:01;;;;;;;7.28;1.17;;;18.20;99.90;;;;;;12420984;28;20418;-84
2023/06/27 20:07:04;;;;;;;4.55;1.00;;;18.00;99.90;;;;;;12410706;28;20486;-84
2023/06/27 20:13:06;;;;;;;3.22;0.63;;;18.20;99.90;;;;;;12427097;28;20051;-84
2023/06/27 20:19:08;;;;;;;6.60;1.15;;;18.20;99.90;;;;;;12396525;28;20406;-84
2023/06/27 20:25:10;;;;;;;3.92;1.10;;;18.10;99.90;;;;;;12428536;28;20050;-84
2023/06/27 20:31:12;;;;;;;6.05;1.27;;;18.10;99.90;;;;;;12431571;28;20925;-84
2023/06/27 20:37:14;;;;;;;5.20;1.08;;;18.00;99.90;;;;;;12451077;28;20068;-84
2023/06/27 20:43:16;;;;;;;4.43;1.20;;;18.00;99.90;;;;;;12405632;28;20054;-84
2023/06/27 20:49:18;;;;;;;4.45;1.00;;;17.70;99.90;;;;;;12427147;28;21355;-84
2023/06/27 20:55:20;;;;;;;2.97;0.90;;;17.50;99.90;;;;;;12417866;28;20070;-84
2023/06/27 21:01:24;;;;;;;5.28;1.02;;;17.40;99.90;;;;;;12424858;28;20057;-84
2023/06/27 21:07:26;;;;;;;4.03;0.93;;;17.40;99.90;;;;;;12439540;28;20042;-84
2023/06/27 21:13:29;;;;;;;4.35;1.25;;;17.40;99.90;;;;;;12414886;28;20382;-84
2023/06/27 21:19:30;;;;;;;8.23;1.23;;;17.30;99.90;;;;;;12425700;28;20054;-84
2023/06/27 21:25:32;;;;;;;3.83;1.20;;;17.10;99.90;;;;;;12410805;28;20045;-84
2023/06/27 21:31:34;;;;;;;1.75;0.90;;;17.10;99.90;;;;;;12421564;28;20920;-84
2023/06/27 21:37:36;;;;;;;2.63;1.20;;;17.10;99.90;;;;;;12425244;28;20049;-84
2023/06/27 21:43:38;;;;;;;7.70;1.10;;;17.20;99.90;;;;;;12434457;28;20046;-84
2023/06/27 21:49:40;;;;;;;3.88;0.98;;;17.20;99.90;;;;;;12444114;28;20061;-84
2023/06/27 21:55:42;;;;;;;2.25;0.90;;;17.00;99.90;;;;;;12424938;28;20046;-84
2023/06/27 22:01:44;;;;;;;2.88;1.00;;;16.80;99.90;;;;;;12445821;28;20042;-84
2023/06/27 22:07:50;;;;;;;2.85;1.10;;;16.60;99.90;;;;;;12431933;28;20054;-86
2023/06/27 22:13:52;;;;;;;6.75;1.10;;;16.50;99.90;;;;;;12438624;28;20065;-84
2023/06/27 22:19:54;;;;;;;3.95;1.00;;;16.40;99.90;;;;;;12427927;28;20064;-83
2023/06/27 22:25:56;;;;;;;5.28;1.10;;;16.40;99.90;;;;;;12415585;28;20053;-84
2023/06/27 22:31:58;;;;;;;10.65;2.25;;;16.30;99.90;;;;;;12432175;28;20085;-83
2023/06/27 22:38:00;;;;;;;4.03;1.10;;;16.40;99.90;;;;;;12428465;28;20064;-85
2023/06/27 22:44:03;;;;;;;4.25;1.10;;;16.20;99.90;;;;;;12421904;28;20094;-83
2023/06/27 22:50:05;;;;;;;6.93;1.13;;;16.10;99.90;;;;;;12424584;28;20050;-85
2023/06/27 22:56:07;;;;;;;2.40;1.10;;;16.00;99.90;;;;;;12428917;28;20129;-83
2023/06/27 23:02:09;;;;;;;5.07;1.55;;;16.00;99.90;;;;;;12425682;28;20057;-85
2023/06/27 23:08:11;;;;;;;5.93;1.50;;;16.20;99.90;;;;;;12436483;28;20383;-84
2023/06/27 23:14:12;;;;;;;3.40;1.30;;;16.00;99.90;;;;;;12420392;28;20088;-84
2023/06/27 23:20:14;;;;;;;3.25;1.10;;;16.10;99.90;;;;;;12403324;28;20093;-84
2023/06/27 23:26:17;;;;;;;3.85;1.17;;;16.00;99.90;;;;;;12421630;28;20065;-84
2023/06/27 23:32:29;;;;;;;3.38;1.10;;;15.90;99.90;;;;;;12415190;28;20162;-84
2023/06/27 23:38:33;;;;;;;4.35;1.13;;;15.80;99.90;;;;;;12434247;28;20038;-85
2023/06/27 23:44:35;;;;;;;2.50;1.05;;;15.80;99.90;;;;;;12411538;28;20045;-84
2023/06/27 23:50:37;;;;;;;4.68;1.40;;;15.90;99.90;;;;;;12409422;28;20105;-84
2023/06/27 23:56:39;;;;;;;4.00;1.23;;;15.80;99.90;;;;;;12418714;28;20062;-84
